Time;durP1;ratioP1;P1;durP2;ratioP2;P2;SDS_P1;SDS_P2;PMS_P1;PMS_P2;Temp;Humidity;BMP_temperature;BMP_pressure;BME280_temperature;BME280_humidity;BME280_pressure;Samples;Min_cycle;Max_cycle;Signal;HPM_P1;HPM_P2
2024/02/20 00:01:50;;;;;;;28.53;4.40;;;7.80;99.90;;;;;;5046072;28;39327;-78
2024/02/20 00:04:19;;;;;;;22.80;4.60;;;7.80;99.90;;;;;;5021275;28;39534;-78
2024/02/20 00:06:46;;;;;;;29.07;6.10;;;7.80;99.90;;;;;;5025025;28;38858;-78
2024/02/20 00:09:12;;;;;;;33.00;5.60;;;7.80;99.90;;;;;;5046404;28;37011;-78
2024/02/20 00:11:38;;;;;;;34.40;4.93;;;7.90;99.90;;;;;;5019700;28;40002;-78
2024/02/20 00:14:05;;;;;;;30.00;4.77;;;7.90;99.90;;;;;;5009695;28;38091;-77
2024/02/20 00:16:31;;;;;;;31.47;4.53;;;7.90;99.90;;;;;;5022778;28;38553;-77
2024/02/20 00:18:57;;;;;;;33.47;4.73;;;7.90;99.90;;;;;;5028604;28;38883;-77
2024/02/20 00:21:24;;;;;;;32.23;4.77;;;8.00;99.90;;;;;;5040923;28;39666;-77
2024/02/20 00:23:51;;;;;;;38.90;4.93;;;8.00;99.90;;;;;;5046132;28;39117;-77
2024/02/20 00:26:18;;;;;;;34.70;5.10;;;8.00;99.90;;;;;;5046869;28;37637;-77
2024/02/20 00:28:44;;;;;;;26.90;5.57;;;8.00;99.90;;;;;;5025429;28;37868;-77
2024/02/20 00:31:11;;;;;;;30.97;5.20;;;7.90;99.90;;;;;;5027115;28;40546;-77
2024/02/20 00:33:37;;;;;;;29.37;4.37;;;7.90;99.90;;;;;;5024360;28;38893;-77
2024/02/20 00:36:05;;;;;;;31.93;5.17;;;8.00;99.90;;;;;;5043053;28;38406;-78
2024/02/20 00:38:31;;;;;;;25.53;3.90;;;8.00;99.90;;;;;;5020320;28;38279;-77
2024/02/20 00:40:58;;;;;;;32.20;4.97;;;8.00;99.90;;;;;;5038624;28;38709;-78
2024/02/20 00:43:24;;;;;;;37.70;4.90;;;8.00;99.90;;;;;;5018208;28;38527;-77
2024/02/20 00:45:50;;;;;;;29.53;4.80;;;8.00;99.90;;;;;;5022445;28;38479;-77
2024/02/20 00:48:17;;;;;;;30.93;5.97;;;8.00;99.90;;;;;;5044839;28;37077;-77
2024/02/20 00:50:43;;;;;;;38.00;4.90;;;8.10;99.90;;;;;;5025801;28;37955;-77
2024/02/20 00:53:09;;;;;;;29.00;4.97;;;8.10;99.90;;;;;;5025126;28;38453;-76
2024/02/20 00:55:35;;;;;;;28.10;4.83;;;8.20;99.90;;;;;;5040142;28;37819;-77
2024/02/20 00:58:01;;;;;;;31.80;4.07;;;8.20;99.90;;;;;;5040675;28;37081;-77
2024/02/20 01:00:28;;;;;;;38.10;5.80;;;8.20;99.90;;;;;;5027506;28;39099;-77
2024/02/20 01:02:54;;;;;;;33.10;5.07;;;8.30;99.90;;;;;;5017197;28;38181;-77
2024/02/20 01:05:20;;;;;;;33.83;5.80;;;8.30;99.90;;;;;;5028397;28;38455;-77
2024/02/20 01:07:47;;;;;;;26.97;4.73;;;8.40;99.90;;;;;;5026207;28;38575;-77
2024/02/20 01:10:13;;;;;;;44.90;5.10;;;8.50;99.90;;;;;;5026800;28;39895;-78
2024/02/20 01:12:40;;;;;;;31.37;4.80;;;8.50;99.90;;;;;;5027901;28;37207;-77
2024/02/20 01:15:06;;;;;;;34.13;6.00;;;8.60;99.90;;;;;;5023682;28;38845;-77
2024/02/20 01:17:33;;;;;;;24.73;4.47;;;8.60;99.90;;;;;;5024435;28;37861;-77
2024/02/20 01:19:59;;;;;;;28.47;4.73;;;8.60;99.90;;;;;;5048511;28;39087;-76
2024/02/20 01:22:25;;;;;;;33.43;4.83;;;8.70;99.90;;;;;;5023045;28;39619;-76
2024/02/20 01:24:52;;;;;;;25.20;3.83;;;8.70;99.90;;;;;;5025786;28;38020;-76
2024/02/20 01:27:18;;;;;;;30.17;4.97;;;8.70;99.90;;;;;;5043847;28;37770;-76
2024/02/20 01:29:45;;;;;;;33.50;5.10;;;8.70;99.90;;;;;;5024283;28;39768;-77
2024/02/20 01:32:13;;;;;;;29.37;3.60;;;8.70;99.90;;;;;;5045604;28;39623;-77
2024/02/20 01:34:39;;;;;;;30.97;5.87;;;8.70;99.90;;;;;;5022296;28;38587;-77
2024/02/20 01:37:05;;;;;;;25.40;4.60;;;8.70;99.90;;;;;;5043928;28;38610;-77
2024/02/20 01:39:32;;;;;;;29.33;5.13;;;8.60;99.90;;;;;;5029127;28;37648;-77
2024/02/20 01:41:58;;;;;;;29.13;5.07;;;8.70;99.90;;;;;;5018903;28;40139;-77
2024/02/20 01:44:31;;;;;;;40.40;6.10;;;8.70;99.90;;;;;;5025843;28;36082;-77
2024/02/20 01:46:58;;;;;;;27.17;4.87;;;8.80;99.90;;;;;;5023390;28;38034;-77
2024/02/20 01:49:25;;;;;;;27.10;4.27;;;8.80;99.90;;;;;;5022580;28;39735;-77
2024/02/20 01:51:52;;;;;;;36.37;5.77;;;8.90;99.90;;;;;;5021437;28;37252;-77
2024/02/20 01:54:18;;;;;;;31.83;5.63;;;8.90;99.90;;;;;;5042716;28;38103;-77
2024/02/20 01:56:45;;;;;;;19.93;4.50;;;9.00;99.90;;;;;;5044656;28;37296;-77
2024/02/20 01:59:12;;;;;;;24.10;4.77;;;9.10;99.90;;;;;;5023735;28;39014;-77
2024/02/20 02:04:17;;;;;;;29.43;6.37;;;9.00;99.90;;;;;;3717655;22;20068;-79
2024/02/20 02:06:43;;;;;;;28.70;4.77;;;9.00;99.90;;;;;;5078455;28;36274;-79
2024/02/20 02:09:11;;;;;;;25.80;5.60;;;9.00;99.90;;;;;;5088161;28;38718;-80
2024/02/20 02:11:39;;;;;;;27.53;5.03;;;9.00;99.90;;;;;;5100587;28;37272;-80
2024/02/20 02:14:07;;;;;;;31.93;5.03;;;8.90;99.90;;;;;;5078574;28;38511;-80
2024/02/20 02:16:33;;;;;;;27.67;5.37;;;8.90;99.90;;;;;;5083851;28;36034;-80
2024/02/20 02:19:00;;;;;;;33.63;5.07;;;8.90;99.90;;;;;;5081555;28;39653;-79
2024/02/20 02:21:26;;;;;;;29.53;5.50;;;8.90;99.90;;;;;;5081571;28;37623;-80
2024/02/20 02:23:52;;;;;;;29.37;5.13;;;8.80;99.90;;;;;;5085797;28;38388;-80
2024/02/20 02:26:18;;;;;;;32.43;5.00;;;8.80;99.90;;;;;;5083263;28;37179;-80
2024/02/20 02:28:47;;;;;;;33.87;5.60;;;8.80;99.90;;;;;;5078535;28;37616;-79
2024/02/20 02:31:16;;;;;;;32.87;5.03;;;8.70;99.90;;;;;;5071714;28;37606;-79
2024/02/20 02:33:47;;;;;;;30.03;5.00;;;8.70;99.90;;;;;;5090247;28;37164;-79
2024/02/20 02:36:14;;;;;;;29.57;5.40;;;8.70;99.90;;;;;;5071215;28;36066;-80
2024/02/20 02:38:40;;;;;;;35.33;5.67;;;8.60;99.90;;;;;;5078393;28;39540;-79
2024/02/20 02:41:07;;;;;;;27.00;5.03;;;8.60;99.90;;;;;;5070943;28;37411;-80
2024/02/20 02:43:34;;;;;;;33.07;5.97;;;8.70;99.90;;;;;;5073198;28;37126;-79
2024/02/20 02:46:00;;;;;;;24.20;5.03;;;8.70;99.90;;;;;;5072051;28;36657;-80
2024/02/20 02:48:27;;;;;;;21.20;6.00;;;8.70;99.90;;;;;;5085758;28;38126;-79
2024/02/20 02:50:53;;;;;;;32.87;5.37;;;8.70;99.90;;;;;;5079689;28;39018;-79
2024/02/20 02:53:21;;;;;;;28.10;5.10;;;8.70;99.90;;;;;;5099652;28;37021;-79
2024/02/20 02:55:48;;;;;;;28.73;5.03;;;8.60;99.90;;;;;;5078364;28;37242;-78
2024/02/20 02:58:14;;;;;;;33.30;5.57;;;8.60;99.90;;;;;;5080152;28;39248;-80
2024/02/20 03:00:40;;;;;;;25.03;4.10;;;8.60;99.90;;;;;;5079056;28;37462;-78
2024/02/20 03:03:07;;;;;;;29.50;5.27;;;8.60;99.90;;;;;;5083625;28;37560;-78
2024/02/20 03:05:36;;;;;;;21.87;4.33;;;8.60;99.90;;;;;;5083057;28;37039;-79
2024/02/20 03:08:03;;;;;;;25.63;4.00;;;8.50;99.90;;;;;;5078072;28;37692;-78
2024/02/20 03:10:30;;;;;;;27.30;4.60;;;8.50;99.90;;;;;;5084586;28;38544;-78
2024/02/20 03:12:56;;;;;;;26.53;4.30;;;8.50;99.90;;;;;;5083404;28;39143;-79
2024/02/20 03:15:23;;;;;;;31.37;4.60;;;8.50;99.90;;;;;;5082414;28;36026;-80
2024/02/20 03:17:49;;;;;;;23.83;4.23;;;8.50;99.90;;;;;;5082986;28;38140;-78
2024/02/20 03:20:15;;;;;;;31.67;5.33;;;8.50;99.90;;;;;;5080311;28;37403;-78
2024/02/20 03:22:43;;;;;;;35.13;5.17;;;8.50;99.90;;;;;;5084947;28;38284;-79
2024/02/20 03:25:09;;;;;;;30.53;5.13;;;8.50;99.90;;;;;;5086702;28;36673;-79
2024/02/20 03:27:36;;;;;;;24.43;4.60;;;8.50;99.90;;;;;;5078848;28;38274;-79
2024/02/20 03:30:12;;;;;;;32.43;4.67;;;8.50;99.90;;;;;;5068373;28;39369;-79
2024/02/20 03:32:41;;;;;;;24.20;4.43;;;8.50;99.90;;;;;;5031909;28;47957;-78
2024/02/20 03:35:11;;;;;;;28.37;4.57;;;8.50;99.90;;;;;;5064625;28;36106;-78
2024/02/20 03:37:38;;;;;;;21.70;4.33;;;8.50;99.90;;;;;;5078189;28;42671;-79
2024/02/20 03:40:13;;;;;;;25.73;5.13;;;8.40;99.90;;;;;;5077190;28;37885;-79
2024/02/20 03:42:40;;;;;;;26.50;4.57;;;8.40;99.90;;;;;;5078736;28;37505;-78
2024/02/20 03:45:07;;;;;;;33.30;5.37;;;8.40;99.90;;;;;;5081097;28;36424;-79
2024/02/20 03:47:33;;;;;;;23.03;4.03;;;8.40;99.90;;;;;;5082089;28;39316;-78
2024/02/20 03:50:00;;;;;;;30.07;4.67;;;8.40;99.90;;;;;;5082049;28;38882;-79
2024/02/20 03:52:26;;;;;;;33.00;5.07;;;8.40;99.90;;;;;;5080494;28;39631;-78
2024/02/20 03:54:52;;;;;;;25.23;4.67;;;8.30;99.90;;;;;;5077177;28;36441;-78
2024/02/20 03:57:18;;;;;;;32.57;5.50;;;8.30;99.90;;;;;;5082360;28;37896;-79
2024/02/20 03:59:44;;;;;;;27.30;5.63;;;8.30;99.90;;;;;;5078185;28;40287;-79
2024/02/20 04:02:10;;;;;;;19.67;4.83;;;8.30;99.90;;;;;;5081795;28;37460;-80
2024/02/20 04:04:37;;;;;;;29.23;4.93;;;8.30;99.90;;;;;;5084594;28;36893;-80
2024/02/20 04:07:04;;;;;;;37.50;5.77;;;8.30;99.90;;;;;;5087682;28;37827;-80
2024/02/20 04:09:30;;;;;;;25.87;5.60;;;8.30;99.90;;;;;;5083972;28;39074;-80
2024/02/20 04:11:57;;;;;;;40.10;4.97;;;8.30;99.90;;;;;;5085759;28;38208;-80
2024/02/20 04:14:23;;;;;;;30.23;6.07;;;8.30;99.90;;;;;;5071391;28;36711;-80
2024/02/20 04:16:49;;;;;;;23.77;4.90;;;8.40;99.90;;;;;;5077254;28;40255;-78
2024/02/20 04:19:15;;;;;;;26.73;5.17;;;8.40;99.90;;;;;;5074313;28;37720;-79
2024/02/20 04:21:42;;;;;;;39.67;5.77;;;8.40;99.90;;;;;;5088277;28;39196;-79
2024/02/20 04:24:08;;;;;;;26.57;4.93;;;8.40;99.90;;;;;;5086940;28;36860;-78
2024/02/20 04:26:34;;;;;;;31.90;5.07;;;8.40;99.90;;;;;;5080670;28;39397;-79
2024/02/20 04:29:00;;;;;;;35.27;5.13;;;8.40;99.90;;;;;;5071902;28;37596;-78
2024/02/20 04:31:27;;;;;;;31.17;5.70;;;8.40;99.90;;;;;;5089015;28;37303;-79
2024/02/20 04:33:53;;;;;;;31.17;5.80;;;8.40;99.90;;;;;;5082323;28;35914;-79
2024/02/20 04:36:25;;;;;;;40.67;6.07;;;8.40;99.90;;;;;;5082105;28;39008;-78
2024/02/20 04:38:56;;;;;;;33.58;6.25;;;8.40;99.90;;;;;;5073679;28;37485;-79
2024/02/20 04:41:24;;;;;;;37.93;6.17;;;8.40;99.90;;;;;;5074881;28;38513;-78
2024/02/20 04:43:50;;;;;;;30.73;5.57;;;8.40;99.90;;;;;;5078458;28;37568;-79
2024/02/20 04:46:17;;;;;;;28.33;5.13;;;8.30;99.90;;;;;;5079903;28;37985;-79
2024/02/20 04:48:44;;;;;;;48.53;6.53;;;8.30;99.90;;;;;;5078830;28;37160;-78
2024/02/20 04:51:10;;;;;;;38.63;5.80;;;8.30;99.90;;;;;;5079718;28;37625;-79
2024/02/20 04:53:36;;;;;;;35.00;6.53;;;8.30;99.90;;;;;;5104367;28;37240;-79
2024/02/20 04:56:03;;;;;;;41.37;6.53;;;8.30;99.90;;;;;;5103461;28;38023;-79
2024/02/20 04:58:30;;;;;;;36.23;6.50;;;8.30;99.90;;;;;;5088984;28;39768;-79
2024/02/20 05:00:56;;;;;;;32.63;5.60;;;8.30;99.90;;;;;;5086459;28;37173;-78
2024/02/20 05:03:22;;;;;;;32.03;6.23;;;8.30;99.90;;;;;;5084341;28;39788;-78
2024/02/20 05:05:48;;;;;;;41.67;5.90;;;8.30;99.90;;;;;;5085425;28;40076;-78
2024/02/20 05:08:14;;;;;;;35.23;6.63;;;8.30;99.90;;;;;;5079164;28;37890;-78
2024/02/20 05:10:42;;;;;;;31.90;5.40;;;8.30;99.90;;;;;;5084886;28;37079;-78
2024/02/20 05:13:08;;;;;;;33.83;6.07;;;8.30;99.90;;;;;;5081662;28;37758;-78
2024/02/20 05:15:34;;;;;;;31.43;6.10;;;8.30;99.90;;;;;;5084655;28;37847;-78
2024/02/20 05:18:00;;;;;;;30.07;5.67;;;8.30;99.90;;;;;;5079881;28;37518;-78
2024/02/20 05:20:26;;;;;;;29.83;6.40;;;8.20;99.90;;;;;;5080419;28;37450;-78
2024/02/20 05:22:52;;;;;;;36.40;5.50;;;8.20;99.90;;;;;;5079827;28;36141;-79
2024/02/20 05:25:19;;;;;;;40.57;6.23;;;8.20;99.90;;;;;;5077791;28;37538;-78
2024/02/20 05:27:46;;;;;;;41.40;6.40;;;8.20;99.90;;;;;;5082924;28;20056;-78
2024/02/20 05:30:13;;;;;;;40.47;6.83;;;8.10;99.90;;;;;;5076707;28;36653;-78
2024/02/20 05:32:39;;;;;;;31.53;5.40;;;8.10;99.90;;;;;;5071321;28;37310;-78
2024/02/20 05:35:07;;;;;;;40.50;6.50;;;8.10;99.90;;;;;;5072511;28;38132;-77
2024/02/20 05:37:33;;;;;;;31.20;6.63;;;8.00;99.90;;;;;;5079025;28;37311;-79
2024/02/20 05:39:59;;;;;;;30.57;5.40;;;8.00;99.90;;;;;;5079627;28;36869;-79
2024/02/20 05:42:27;;;;;;;35.20;5.70;;;8.00;99.90;;;;;;5079754;28;38036;-79
2024/02/20 05:44:54;;;;;;;37.43;6.30;;;7.90;99.90;;;;;;5083399;28;39611;-78
2024/02/20 05:47:20;;;;;;;29.73;5.53;;;7.90;99.90;;;;;;5072544;28;38389;-79
2024/02/20 05:49:46;;;;;;;39.23;5.73;;;7.90;99.90;;;;;;5102051;28;36830;-79
2024/02/20 05:52:12;;;;;;;35.50;5.87;;;7.90;99.90;;;;;;5083666;28;37374;-79
2024/02/20 05:54:38;;;;;;;41.40;5.63;;;7.90;99.90;;;;;;5076429;28;37775;-77
2024/02/20 05:57:05;;;;;;;32.70;5.60;;;7.90;99.90;;;;;;5081440;28;38798;-78
2024/02/20 05:59:31;;;;;;;29.73;5.07;;;7.90;99.90;;;;;;5077112;28;37772;-79
2024/02/20 06:01:57;;;;;;;40.37;5.83;;;7.90;99.90;;;;;;5074011;28;38706;-78
2024/02/20 06:04:23;;;;;;;33.27;6.47;;;7.90;99.90;;;;;;5069967;28;38435;-78
2024/02/20 06:06:49;;;;;;;34.50;7.43;;;7.90;99.90;;;;;;5075012;28;37361;-76
2024/02/20 06:09:16;;;;;;;34.97;6.57;;;7.90;99.90;;;;;;5085149;28;36909;-77
2024/02/20 06:11:42;;;;;;;45.43;6.80;;;7.80;99.90;;;;;;5069502;28;37644;-76
2024/02/20 06:14:08;;;;;;;40.47;7.17;;;7.90;99.90;;;;;;5069594;28;38600;-76
2024/02/20 06:16:34;;;;;;;31.13;5.87;;;7.90;99.90;;;;;;5070815;28;38368;-76
2024/02/20 06:19:05;;;;;;;36.60;5.90;;;7.90;99.90;;;;;;5072517;28;38107;-76
2024/02/20 06:21:31;;;;;;;34.30;6.77;;;7.90;99.90;;;;;;5067583;28;49534;-76
2024/02/20 06:23:57;;;;;;;36.03;7.07;;;7.90;99.90;;;;;;5079191;28;39830;-78
2024/02/20 06:26:24;;;;;;;42.93;7.30;;;7.90;99.90;;;;;;5054220;28;37289;-78
2024/02/20 06:28:51;;;;;;;36.17;5.97;;;8.00;99.90;;;;;;5071425;28;37303;-77
2024/02/20 06:31:17;;;;;;;40.83;8.00;;;8.00;99.90;;;;;;5074685;28;38640;-78
2024/02/20 06:33:46;;;;;;;40.80;7.20;;;7.90;99.90;;;;;;5080445;28;38587;-78
2024/02/20 06:36:12;;;;;;;40.47;6.33;;;7.90;99.90;;;;;;5070989;28;38535;-77
2024/02/20 06:38:38;;;;;;;32.27;5.80;;;7.90;99.90;;;;;;5073379;28;36741;-77
2024/02/20 06:41:04;;;;;;;36.33;5.80;;;7.90;99.90;;;;;;5085473;28;35908;-77
2024/02/20 06:43:30;;;;;;;38.57;7.33;;;7.80;99.90;;;;;;5068128;28;39192;-77
2024/02/20 06:45:57;;;;;;;33.63;5.43;;;7.80;99.90;;;;;;5077586;28;39622;-78
2024/02/20 06:48:23;;;;;;;30.37;6.40;;;7.80;99.90;;;;;;5081460;28;37832;-79
2024/02/20 06:51:03;;;;;;;32.63;5.73;;;7.70;99.90;;;;;;5088006;28;37486;-80
2024/02/20 06:53:33;;;;;;;38.53;5.60;;;7.70;99.90;;;;;;5061643;28;47444;-79
2024/02/20 06:56:01;;;;;;;43.03;7.03;;;7.70;99.90;;;;;;5068687;27;38758;-79
2024/02/20 06:58:28;;;;;;;37.67;6.27;;;7.70;99.90;;;;;;5061395;28;38847;-79
2024/02/20 07:00:55;;;;;;;36.27;6.00;;;7.70;99.90;;;;;;5073162;28;36586;-80
2024/02/20 07:03:21;;;;;;;35.87;5.87;;;7.60;99.90;;;;;;5070952;28;37532;-78
2024/02/20 07:05:50;;;;;;;38.60;6.37;;;7.60;99.90;;;;;;5078062;28;37095;-78
2024/02/20 07:08:17;;;;;;;31.80;5.67;;;7.60;99.90;;;;;;5074613;28;38445;-79
2024/02/20 07:10:44;;;;;;;41.13;6.93;;;7.60;99.90;;;;;;5082857;28;37117;-79
2024/02/20 07:13:11;;;;;;;40.97;6.23;;;7.60;99.90;;;;;;5054621;28;39290;-80
2024/02/20 07:15:38;;;;;;;42.70;5.63;;;7.60;99.90;;;;;;5074725;28;38842;-75
2024/02/20 07:18:10;;;;;;;31.10;6.33;;;7.60;99.90;;;;;;5086178;28;39213;-79
2024/02/20 07:25:53;;;;;;;37.77;5.60;;;7.60;99.90;;;;;;5077846;27;20025;-80
2024/02/20 07:30:58;;;;;;;29.40;5.43;;;7.70;99.90;;;;;;5558027;22;20038;-79
2024/02/20 07:33:26;;;;;;;39.30;7.20;;;7.80;99.90;;;;;;5070162;28;40119;-78
2024/02/20 07:35:52;;;;;;;34.00;6.13;;;7.80;99.90;;;;;;5069863;28;37614;-78
2024/02/20 07:38:18;;;;;;;41.93;5.83;;;7.90;99.90;;;;;;5058827;28;37765;-79
2024/02/20 07:40:47;;;;;;;36.37;6.20;;;7.90;99.90;;;;;;5063282;28;36451;-78
2024/02/20 07:43:13;;;;;;;34.00;5.03;;;7.90;99.90;;;;;;5080947;28;38643;-78
2024/02/20 07:46:15;;;;;;;43.97;8.33;;;8.00;99.90;;;;;;5069136;27;37396;-80
2024/02/20 07:48:51;;;;;;;39.50;6.20;;;8.00;99.90;;;;;;5055596;28;48217;-80
2024/02/20 07:51:23;;;;;;;40.83;6.67;;;8.00;99.90;;;;;;5064523;28;35632;-79
2024/02/20 07:53:50;;;;;;;33.38;5.97;;;8.10;99.90;;;;;;5046861;28;39025;-78
2024/02/20 07:56:29;;;;;;;35.47;6.27;;;8.10;99.90;;;;;;5065055;28;38149;-79
2024/02/20 07:58:55;;;;;;;34.13;5.70;;;8.10;99.90;;;;;;5057369;28;38955;-77
2024/02/20 08:01:22;;;;;;;29.27;6.33;;;8.20;99.90;;;;;;5052801;28;37756;-76
2024/02/20 08:03:49;;;;;;;27.97;5.07;;;8.10;99.90;;;;;;5052385;28;38041;-77
2024/02/20 08:06:15;;;;;;;29.07;6.03;;;8.10;99.90;;;;;;5053749;28;38354;-77
2024/02/20 08:08:51;;;;;;;34.47;5.53;;;8.20;99.90;;;;;;5085269;28;37035;-80
2024/02/20 08:11:19;;;;;;;29.87;5.63;;;8.20;99.90;;;;;;5058597;28;37908;-80
2024/02/20 08:13:54;;;;;;;36.30;5.97;;;8.20;99.90;;;;;;5087791;28;40472;-80
2024/02/20 08:16:21;;;;;;;33.10;5.50;;;8.20;99.90;;;;;;5080029;28;38219;-79
2024/02/20 08:18:48;;;;;;;36.10;7.17;;;8.30;99.90;;;;;;5078726;28;38660;-80
2024/02/20 08:21:20;;;;;;;33.03;6.17;;;8.40;99.90;;;;;;5070009;28;38541;-79
2024/02/20 08:24:01;;;;;;;33.40;5.15;;;8.40;99.90;;;;;;5070485;28;37927;-80
2024/02/20 08:26:28;;;;;;;31.50;5.80;;;8.50;99.90;;;;;;5072587;28;48976;-80
2024/02/20 08:28:58;;;;;;;26.63;6.30;;;8.60;99.90;;;;;;5072429;28;37208;-80
2024/02/20 08:31:27;;;;;;;33.95;5.97;;;8.70;99.90;;;;;;5053088;27;38733;-80
2024/02/20 08:34:15;;;;;;;22.90;5.20;;;8.70;99.90;;;;;;5073089;28;40177;-79
2024/02/20 08:36:42;;;;;;;30.03;6.03;;;8.80;99.90;;;;;;5070258;28;49853;-81
2024/02/20 08:39:15;;;;;;;28.70;6.07;;;8.90;99.90;;;;;;5091361;27;38596;-81
2024/02/20 08:41:50;;;;;;;26.93;5.20;;;8.90;99.90;;;;;;5094280;27;37495;-80
2024/02/20 08:44:31;;;;;;;32.07;6.30;;;9.00;99.90;;;;;;5045573;27;39250;-81
2024/02/20 08:47:16;;;;;;;39.05;6.50;;;9.00;99.90;;;;;;5058438;28;38640;-79
2024/02/20 08:49:57;;;;;;;30.43;6.20;;;9.10;99.90;;;;;;5071868;28;50040;-80
2024/02/20 08:52:26;;;;;;;30.03;5.93;;;9.10;99.90;;;;;;5037408;28;36571;-79
2024/02/20 08:54:53;;;;;;;34.50;5.73;;;9.20;99.90;;;;;;5073884;28;39040;-80
2024/02/20 08:57:21;;;;;;;35.63;6.33;;;9.30;99.90;;;;;;5104680;22;38524;-82
2024/02/20 08:59:51;;;;;;;36.57;6.77;;;9.30;99.90;;;;;;5065582;28;38546;-80
2024/02/20 09:02:25;;;;;;;26.93;5.33;;;9.30;99.90;;;;;;5059666;27;38568;-80
2024/02/20 09:05:25;;;;;;;28.93;5.57;;;9.30;99.90;;;;;;5076354;28;39354;-81
2024/02/20 09:08:03;;;;;;;31.93;5.93;;;9.40;99.90;;;;;;5071972;27;48747;-80
2024/02/20 09:10:31;;;;;;;27.77;6.47;;;9.60;99.90;;;;;;5048243;28;48937;-80
2024/02/20 09:13:02;;;;;;;27.10;5.57;;;9.60;99.90;;;;;;5058272;28;37632;-80
2024/02/20 09:15:35;;;;;;;41.13;6.60;;;9.60;99.90;;;;;;5068355;27;48430;-80
2024/02/20 09:18:02;;;;;;;36.08;5.93;;;9.70;99.90;;;;;;5073562;28;37404;-80
2024/02/20 09:20:35;;;;;;;27.20;5.40;;;9.70;99.90;;;;;;5055710;27;47433;-81
2024/02/20 09:23:26;;;;;;;25.90;4.83;;;9.90;99.90;;;;;;5041660;28;37979;-81
2024/02/20 09:26:32;;;;;;;23.65;5.80;;;10.00;99.90;;;;;;5038098;28;39819;-81
2024/02/20 09:29:15;;;;;;;29.67;6.80;;;10.00;99.90;;;;;;5026312;28;48983;-81
2024/02/20 09:31:49;;;;;;;21.90;5.07;;;10.00;99.90;;;;;;5034046;28;48430;-82
2024/02/20 09:34:22;;;;;;;27.90;6.22;;;10.00;99.90;;;;;;5051976;28;36191;-81
2024/02/20 09:36:50;;;;;;;27.35;5.53;;;10.10;99.90;;;;;;5041591;28;39089;-80
2024/02/20 09:39:21;;;;;;;27.55;5.65;;;10.10;99.90;;;;;;5058104;28;39030;-80
2024/02/20 09:41:59;;;;;;;29.07;6.60;;;10.10;99.90;;;;;;5070726;28;37182;-80
2024/02/20 09:44:32;;;;;;;27.27;5.03;;;10.10;99.90;;;;;;5061938;28;36466;-81
2024/02/20 09:47:06;;;;;;;26.93;4.87;;;10.20;99.90;;;;;;5067705;28;39037;-81
2024/02/20 09:49:42;;;;;;;19.53;5.10;;;10.30;99.90;;;;;;5053080;28;38877;-81
2024/02/20 09:52:21;;;;;;;28.60;5.60;;;10.40;99.90;;;;;;5055962;28;37632;-80
2024/02/20 09:57:24;;;;;;;32.43;6.13;;;10.40;99.90;;;;;;5557461;22;19908;-81
2024/02/20 09:59:51;;;;;;;33.33;6.80;;;10.30;99.90;;;;;;5085964;28;38489;-81
2024/02/20 10:02:22;;;;;;;24.95;5.97;;;10.20;99.90;;;;;;5095222;27;38785;-79
2024/02/20 10:04:49;;;;;;;25.50;5.60;;;10.20;99.90;;;;;;5090210;28;36609;-81
2024/02/20 10:07:26;;;;;;;29.07;6.30;;;10.30;99.90;;;;;;5189683;22;39423;-81
2024/02/20 10:09:54;;;;;;;34.20;6.67;;;10.20;99.90;;;;;;5095447;28;39929;-80
2024/02/20 10:12:23;;;;;;;26.83;7.27;;;10.20;99.90;;;;;;5084943;28;36891;-80
2024/02/20 10:14:49;;;;;;;27.02;5.85;;;10.30;99.90;;;;;;5078917;28;36976;-79
2024/02/20 10:17:31;;;;;;;29.60;6.45;;;10.40;99.90;;;;;;5090037;27;38976;-80
2024/02/20 10:20:25;;;;;;;30.70;6.43;;;10.50;99.90;;;;;;5088246;28;37652;-80
2024/02/20 10:23:03;;;;;;;24.80;5.30;;;10.60;99.90;;;;;;5086984;27;50191;-81
2024/02/20 10:25:42;;;;;;;29.88;6.22;;;10.70;99.90;;;;;;5068663;27;37266;-81
2024/02/20 10:28:12;;;;;;;26.73;6.10;;;10.80;99.90;;;;;;5053183;28;40210;-80
2024/02/20 10:30:38;;;;;;;33.40;7.13;;;10.80;99.90;;;;;;5100649;27;39748;-81
2024/02/20 10:33:07;;;;;;;28.48;6.32;;;10.80;99.90;;;;;;5066272;27;38276;-79
2024/02/20 10:35:35;;;;;;;32.53;6.45;;;10.90;97.70;;;;;;5085647;28;38496;-80
2024/02/20 10:38:57;;;;;;;28.77;6.05;;;10.90;98.70;;;;;;5093603;28;38087;-80
2024/02/20 10:41:24;;;;;;;25.52;5.20;;;11.00;93.80;;;;;;5075364;28;49155;-80
2024/02/20 10:43:50;;;;;;;28.98;5.85;;;11.10;88.80;;;;;;5076460;28;39552;-80
2024/02/20 10:46:17;;;;;;;44.28;7.38;;;11.10;96.50;;;;;;5082599;28;36521;-80
2024/02/20 10:48:48;;;;;;;28.55;5.72;;;11.10;84.30;;;;;;5074287;28;39181;-79
2024/02/20 10:51:14;;;;;;;27.05;6.43;;;11.20;93.20;;;;;;5071645;28;38535;-78
2024/02/20 10:53:45;;;;;;;25.80;5.45;;;11.30;82.20;;;;;;5068886;28;38854;-79
2024/02/20 10:56:14;;;;;;;31.40;6.88;;;11.40;88.70;;;;;;5058713;28;37818;-78
2024/02/20 10:58:42;;;;;;;32.80;7.25;;;11.30;58.00;;;;;;5060948;28;37328;-80
2024/02/20 11:01:13;;;;;;;23.30;5.40;;;11.40;63.80;;;;;;5074246;28;37599;-78
2024/02/20 11:03:40;;;;;;;22.83;5.90;;;11.30;56.20;;;;;;5063773;28;37740;-80
2024/02/20 11:06:10;;;;;;;27.80;6.32;;;11.50;67.30;;;;;;5086903;28;36849;-79
2024/02/20 11:08:36;;;;;;;28.98;6.40;;;11.50;49.40;;;;;;5075513;28;40125;-80
2024/02/20 11:11:16;;;;;;;28.15;5.93;;;11.60;62.40;;;;;;5098037;28;37525;-81
2024/02/20 11:13:43;;;;;;;22.80;5.13;;;11.70;42.80;;;;;;5080718;28;38013;-80
2024/02/20 11:16:13;;;;;;;26.15;6.93;;;11.60;25.50;;;;;;5089851;28;35372;-81
2024/02/20 11:18:54;;;;;;;27.20;5.70;;;11.60;30.00;;;;;;5091008;28;39096;-80
2024/02/20 11:21:38;;;;;;;31.52;6.05;;;11.70;12.00;;;;;;5084426;28;37984;-80
2024/02/20 11:24:44;;;;;;;20.63;5.82;;;11.80;7.90;;;;;;5088891;27;39312;-81
2024/02/20 11:27:28;;;;;;;27.77;6.07;;;11.80;1.00;;;;;;5098266;27;38608;-81
2024/02/20 11:30:22;;;;;;;26.70;6.40;;;11.90;1.00;;;;;;5101079;27;40260;-80
2024/02/20 11:33:33;;;;;;;28.02;5.90;;;12.10;1.00;;;;;;5088321;27;49921;-80
2024/02/20 11:41:40;;;;;;;28.75;6.32;;;11.70;1.00;;;;;;5116401;22;20032;-81
2024/02/20 11:44:11;;;;;;;31.65;6.60;;;11.80;13.20;;;;;;5086404;28;38026;-80
2024/02/20 11:46:38;;;;;;;26.75;6.40;;;11.80;15.70;;;;;;5072248;28;38675;-78
2024/02/20 11:49:04;;;;;;;29.60;6.82;;;12.00;12.10;;;;;;5064706;28;36393;-79
2024/02/20 11:51:31;;;;;;;29.48;6.45;;;12.10;1.00;;;;;;5064921;28;39092;-77
2024/02/20 11:54:05;;;;;;;32.20;6.97;;;12.20;6.60;;;;;;5067066;28;37137;-77
2024/02/20 11:56:36;;;;;;;29.13;6.40;;;12.10;9.10;;;;;;5066981;28;47260;-78
2024/02/20 11:59:03;;;;;;;25.77;6.57;;;12.20;12.30;;;;;;5063135;28;36423;-79
2024/02/20 12:01:31;;;;;;;23.23;5.90;;;12.00;2.90;;;;;;5068980;28;39704;-78
2024/02/20 12:04:06;;;;;;;22.02;6.22;;;11.80;5.70;;;;;;5067341;28;37282;-77
2024/02/20 12:06:35;;;;;;;22.95;6.25;;;11.80;17.80;;;;;;5069078;28;49005;-78
2024/02/20 12:09:03;;;;;;;23.33;5.57;;;11.70;7.40;;;;;;5082295;28;36094;-79
2024/02/20 12:11:31;;;;;;;30.42;6.68;;;11.80;13.20;;;;;;5090319;28;38250;-80
2024/02/20 12:14:05;;;;;;;27.38;6.65;;;12.00;6.90;;;;;;5081085;28;38850;-79
2024/02/20 12:16:36;;;;;;;28.95;6.70;;;12.00;10.10;;;;;;5083777;28;47796;-79
2024/02/20 12:19:02;;;;;;;24.17;6.32;;;12.10;1.00;;;;;;5083078;28;37621;-79
2024/02/20 12:21:31;;;;;;;29.58;7.80;;;12.10;8.50;;;;;;5085115;28;40449;-79
2024/02/20 12:24:07;;;;;;;24.13;6.60;;;12.00;2.50;;;;;;5093715;28;38171;-80
2024/02/20 12:26:33;;;;;;;25.10;7.43;;;11.70;7.70;;;;;;5095117;28;47907;-80
2024/02/20 12:28:59;;;;;;;27.35;7.07;;;11.60;17.90;;;;;;5085390;28;38581;-79
2024/02/20 12:31:28;;;;;;;27.92;7.25;;;11.50;19.60;;;;;;5079375;28;38992;-80
2024/02/20 12:33:55;;;;;;;31.13;7.47;;;11.50;28.60;;;;;;5070812;28;39938;-79
2024/02/20 12:36:23;;;;;;;34.13;8.98;;;11.40;38.30;;;;;;5074144;28;38839;-81
2024/02/20 12:38:49;;;;;;;31.05;8.18;;;11.40;38.70;;;;;;5095063;22;37705;-78
2024/02/20 12:41:15;;;;;;;26.48;8.32;;;11.50;28.90;;;;;;5061614;28;38713;-78
2024/02/20 12:43:42;;;;;;;28.10;8.15;;;11.60;33.90;;;;;;5069087;28;37278;-78
2024/02/20 12:46:08;;;;;;;29.58;8.40;;;11.80;33.50;;;;;;5062848;28;36807;-78
2024/02/20 12:48:34;;;;;;;30.33;8.20;;;11.70;14.30;;;;;;5064382;28;35927;-78
2024/02/20 12:51:01;;;;;;;30.73;7.75;;;11.80;19.50;;;;;;5066521;28;39003;-78
2024/02/20 12:53:27;;;;;;;27.45;8.10;;;11.90;22.20;;;;;;5066059;28;47435;-77
2024/02/20 12:55:54;;;;;;;33.17;9.63;;;11.90;9.00;;;;;;5062072;28;38583;-78
2024/02/20 12:58:20;;;;;;;32.47;8.80;;;11.70;20.00;;;;;;5067399;28;35676;-78
2024/02/20 13:00:46;;;;;;;29.10;9.30;;;11.70;20.00;;;;;;5066484;28;39193;-78
2024/02/20 13:03:13;;;;;;;33.00;9.43;;;11.70;23.40;;;;;;5085867;28;40525;-78
2024/02/20 13:05:44;;;;;;;30.27;8.40;;;11.60;18.20;;;;;;5068536;28;38103;-77
2024/02/20 13:08:11;;;;;;;30.48;9.70;;;11.60;26.70;;;;;;5067228;28;38713;-79
2024/02/20 13:10:38;;;;;;;26.00;9.05;;;11.60;42.00;;;;;;5071342;28;38829;-78
2024/02/20 13:13:05;;;;;;;29.23;8.77;;;11.70;25.50;;;;;;5067404;28;39127;-79
2024/02/20 13:15:32;;;;;;;24.50;7.90;;;11.60;29.30;;;;;;5067093;28;39000;-79